Ana Sayfa
METAR-TAF:

METAR-TAF

Havaalanları :

Cortez, Colorado, Amerika Birleşik Devletleri

Enlem: 37-18-23N, Boylam: 108-37-32W, yükseklik: 1803 m

Güncel hava durumu gözlemi

Rapor saat 01:53 UTC de 20 dakika önce yapıldı.
Rüzgar kuzeydan 3 kt
Sıcaklık 4°C
Nem 81%
Basınç 1022 hPa
Görüş mesafesi: 16.1 km
6500 ft yükseklikte çok bulutlu

METAR: KCEZ 080153Z AUTO 01003KT 10SM OVC065 04/01 A3019 RMK AO2 SLP226 T00390011

Saat: 19:13 (02:13 UTC)


TAF: eksik

4.000'den fazla havaalanı için hava durumu gözlemleri ve tahminleri (METAR ve TAF raporları).

Kullanılabilir istasyonlar harita üzerinde sarı ve kırmızı noktalarla gösterilir.

İstasyonun adını görmek için fareyi noktanın üzerinde gezdirin.

Sonrasında hava gözlem ve tahminlerini görmek için tıklayın.

Haritayı değiştirmek için: yaklaştırmak için siyah artı işaretli yeşil düğmeye ve uzaklaştırmak için de eksi işaretli düğmeye hızla tıklayın; bitişik haritalar için yeşil okları kullanın.


METAR-TAF: